Friday, January 19, 2018, 10:33 PM EST
Back to Local

KRME, Griffiss Airfield

Location: Rome, NY, United States Lat: 43.233
Local Time: 10:33 PM EST ( 3:33 GMT) Lon: -75.4
Time Zone: US/Eastern Elev: 505 ft

Show me the last for .
Show Coded

Time T Td Feel RH Dir Speed Gust Alt SLP Vis Weather Sky Remarks
2018-01-19 21:53 19 15 - 84 - Calm - 29.83 29.85 8 CLR None
2018-01-19 20:53 20 17 12 88 140° 6 - 29.84 29.86 7 CLR None
2018-01-19 19:53 25 18 17 74 100° 7 - 29.86 29.88 10 CLR None
2018-01-19 18:53 23 17 16 77 120° 6 - 29.89 29.91 10 CLR 6-hr Min Temp (7pm): 21.0°F
6-hr Max Temp (7pm): 30.0°F
2018-01-19 17:53 25 18 18 74 80° 6 - 29.90 29.92 10 CLR None
2018-01-19 16:53 28 18 23 65 90° 5 - 29.90 29.92 10 CLR None
2018-01-19 15:53 30 19 26 63 100° 3 - 29.91 29.92 10 CLR None
2018-01-19 14:53 29 19 24 66 100° 5 - 29.93 29.94 10 OVC035 None
2018-01-19 13:53 27 18 23 68 100° 3 - 29.94 29.95 10 OVC032 None
2018-01-19 12:53 25 17 19 71 100° 5 - 29.94 29.96 10 OVC030 6-hr Min Temp (1pm): 7.0°F
6-hr Max Temp (1pm): 25.0°F
2018-01-19 11:53 24 15 18 68 100° 5 - 29.97 29.98 9 OVC031 None
2018-01-19 11:31 23 15 15 71 100° 7 - 29.97 - 10 OVC030 None
2018-01-19 10:53 22 14 14 71 100° 6 - 29.98 30.00 10 OVC029 None
2018-01-19 10:20 20 13 12 73 90° 6 - 29.99 - 9 OVC029 None
2018-01-19 09:53 19 13 8 76 90° 9 - 29.98 30.00 9 OVC032 None
2018-01-19 08:53 18 12 10 77 100° 6 - 29.99 30.01 8 OVC033 None
2018-01-19 07:53 12 9 6 87 100° 3 - 29.99 30.01 6 BR OVC035 None
2018-01-19 06:53 7 6 - 95 - Calm - 29.98 30.00 8 BKN037 6-hr Min Temp (7am): 7.0°F
6-hr Max Temp (7am): 19.0°F
2018-01-19 05:53 14 11 8 87 80° 3 - 29.98 30.00 8 CLR None
2018-01-19 04:53 12 9 - 87 - Calm - 29.97 29.99 8 CLR None
2018-01-19 03:53 16 12 9 84 80° 5 - 29.97 29.99 8 CLR None
2018-01-19 02:53 19 13 12 76 80° 5 - 29.97 29.99 9 FEW100 None
2018-01-19 01:53 19 13 12 76 80° 5 - 29.99 30.01 8 OVC040 None
2018-01-19 00:53 18 14 - 84 - Calm - 30.00 30.02 8 OVC041 6-hr Min Temp (1am): 16.0°F
6-hr Max Temp (1am): 21.0°F
2018-01-18 23:53 19 12 - 73 - Calm - 30.01 30.03 9 FEW120 24-hr Min Temp (12am): -9.0°F
24-hr Max Temp (12am): 21.0°F
2018-01-18 22:53 20 14 - 77 - Calm - 30.01 30.03 9 SCT034 None
2018-01-18 22:39 20 14 12 77 250° 6 - 30.01 - 9 SCT021 OVC034 None

Support USWX by starting your Amazon purchase here.